Date,TemperatureHighF,TemperatureAvgF,TemperatureLowF,DewpointHighF,DewpointAvgF,DewpointLowF,HumidityHigh,HumidityAvg,HumidityLow,PressureMaxIn,PressureMinIn,WindSpeedMaxMPH,WindSpeedAvgMPH,GustSpeedMaxMPH,PrecipitationSumIn
2013-2-1,50,32,21,34,24,18,92,77,42,30.54,30.42,5,0,6,0.00
2013-2-2,47,31,21,34,25,18,92,80,54,30.55,30.40,6,0,6,0.01
2013-2-3,54,36,22,31,25,19,91,69,35,30.42,30.24,7,0,7,0.00
2013-2-4,50,38,31,32,27,24,80,64,38,30.26,30.01,4,0,4,0.00
2013-2-5,46,36,29,31,26,21,83,67,46,30.13,29.97,15,1,15,0.00
2013-2-6,46,35,28,27,24,22,83,66,41,30.19,29.98,12,1,13,0.00
2013-2-7,37,32,25,27,24,20,88,71,52,30.16,29.96,11,0,12,0.00
2013-2-8,39,28,18,24,19,14,89,71,42,30.31,30.16,10,1,10,0.00
2013-2-9,43,27,14,29,20,10,86,74,55,30.38,30.26,9,0,9,0.00
2013-2-10,44,29,19,28,21,16,91,73,42,30.43,30.33,9,0,9,0.00
2013-2-11,49,31,17,32,22,13,92,71,43,30.46,30.34,9,0,10,0.00
2013-2-12,49,35,26,31,26,22,92,71,38,30.53,30.45,7,0,7,0.00
2013-2-13,46,35,25,32,27,22,89,75,54,30.55,30.45,5,0,5,0.00
2013-2-14,53,34,22,35,27,19,91,76,48,30.64,30.54,6,0,6,0.00
2013-2-15,57,35,23,38,28,20,92,77,45,30.62,30.37,9,0,9,0.00
2013-2-16,52,39,23,34,26,19,92,60,34,30.38,30.16,12,1,12,0.00
2013-2-17,44,29,16,24,18,12,87,69,32,30.31,30.19,6,0,9,0.00
2013-2-18,39,29,22,25,22,18,89,74,54,30.19,29.86,5,0,5,0.00
2013-2-19,41,28,19,24,20,15,95,74,48,30.07,29.78,6,0,7,0.00
2013-2-20,41,28,16,24,19,12,88,71,46,30.18,30.07,5,0,7,0.00
2013-2-21,40,30,16,24,20,13,90,70,49,30.27,30.16,7,0,7,0.00
2013-2-22,43,34,25,32,27,20,88,76,58,30.26,29.94,16,2,21,0.09
2013-2-23,38,27,16,24,19,12,89,73,44,30.51,30.09,10,0,10,0.03
2013-2-24,47,31,17,31,21,12,92,69,49,30.53,30.20,7,0,10,0.01
2013-2-25,40,34,24,30,23,11,87,66,36,30.40,30.11,11,1,12,0.02
2013-2-26,48,33,18,23,18,14,85,57,30,30.46,30.32,9,1,11,0.00
2013-2-27,46,38,26,34,25,15,73,59,42,30.39,30.32,11,1,11,0.00
2013-2-28,55,43,37,39,35,30,84,74,53,30.51,30.30,13,2,13,0.00